sensor_id;sensor_type;location;lat;lon;timestamp;pressure;altitude;pressure_sealevel;temperature;humidity
63351;BME280;64988;51.058;17.040;2022-11-18T00:03:09;98904.53;;;2.61;73.19
63351;BME280;64988;51.058;17.040;2022-11-18T00:09:01;98898.44;;;2.59;73.04
63351;BME280;64988;51.058;17.040;2022-11-18T00:14:54;98894.84;;;2.60;73.09
63351;BME280;64988;51.058;17.040;2022-11-18T00:20:46;98889.59;;;2.59;73.45
63351;BME280;64988;51.058;17.040;2022-11-18T00:26:39;98882.25;;;2.50;73.76
63351;BME280;64988;51.058;17.040;2022-11-18T00:32:31;98888.22;;;2.53;73.77
63351;BME280;64988;51.058;17.040;2022-11-18T00:38:26;98888.00;;;2.56;73.93
63351;BME280;64988;51.058;17.040;2022-11-18T00:44:18;98901.22;;;2.45;73.91
63351;BME280;64988;51.058;17.040;2022-11-18T00:50:11;98884.38;;;2.45;74.11
63351;BME280;64988;51.058;17.040;2022-11-18T00:56:04;98874.47;;;2.47;73.41
63351;BME280;64988;51.058;17.040;2022-11-18T01:01:56;98883.09;;;2.50;73.78
63351;BME280;64988;51.058;17.040;2022-11-18T01:07:48;98881.38;;;2.37;74.26
63351;BME280;64988;51.058;17.040;2022-11-18T01:13:40;98862.31;;;2.43;74.38
63351;BME280;64988;51.058;17.040;2022-11-18T01:19:32;98878.72;;;2.37;74.12
63351;BME280;64988;51.058;17.040;2022-11-18T01:25:26;98878.72;;;2.37;73.90
63351;BME280;64988;51.058;17.040;2022-11-18T01:31:19;98880.22;;;2.28;73.77
63351;BME280;64988;51.058;17.040;2022-11-18T01:37:12;98872.88;;;2.32;74.20
63351;BME280;64988;51.058;17.040;2022-11-18T01:43:11;98871.38;;;2.28;74.27
63351;BME280;64988;51.058;17.040;2022-11-18T01:49:07;98858.13;;;2.13;74.48
63351;BME280;64988;51.058;17.040;2022-11-18T01:55:05;98850.91;;;2.16;74.42
63351;BME280;64988;51.058;17.040;2022-11-18T02:01:01;98865.91;;;2.17;74.69
63351;BME280;64988;51.058;17.040;2022-11-18T02:06:55;98871.22;;;2.17;74.38
63351;BME280;64988;51.058;17.040;2022-11-18T02:12:48;98859.63;;;2.18;74.13
63351;BME280;64988;51.058;17.040;2022-11-18T02:19:21;98868.66;;;2.02;74.11
63351;BME280;64988;51.058;17.040;2022-11-18T02:37:50;98878.97;;;2.07;73.81
63351;BME280;64988;51.058;17.040;2022-11-18T02:43:48;98860.75;;;2.01;74.32
63351;BME280;64988;51.058;17.040;2022-11-18T02:49:45;98854.69;;;1.99;74.49
63351;BME280;64988;51.058;17.040;2022-11-18T02:55:39;98837.13;;;1.84;75.37
63351;BME280;64988;51.058;17.040;2022-11-18T03:01:34;98852.41;;;1.80;76.66
63351;BME280;64988;51.058;17.040;2022-11-18T03:07:29;98853.38;;;1.79;77.21
63351;BME280;64988;51.058;17.040;2022-11-18T03:13:33;98839.66;;;1.85;76.69
63351;BME280;64988;51.058;17.040;2022-11-18T03:25:45;98846.53;;;1.75;77.09
63351;BME280;64988;51.058;17.040;2022-11-18T03:31:45;98827.03;;;1.35;83.84
63351;BME280;64988;51.058;17.040;2022-11-18T03:37:40;98824.72;;;1.43;82.02
63351;BME280;64988;51.058;17.040;2022-11-18T03:43:36;98830.94;;;1.30;81.57
63351;BME280;64988;51.058;17.040;2022-11-18T03:49:44;98823.53;;;1.35;82.09
63351;BME280;64988;51.058;17.040;2022-11-18T03:55:42;98829.97;;;1.31;84.06
63351;BME280;64988;51.058;17.040;2022-11-18T04:01:41;98831.50;;;1.35;81.78
63351;BME280;64988;51.058;17.040;2022-11-18T04:13:35;98822.75;;;1.33;81.17
63351;BME280;64988;51.058;17.040;2022-11-18T04:19:28;98819.13;;;1.48;81.08
63351;BME280;64988;51.058;17.040;2022-11-18T04:25:20;98827.38;;;1.43;80.69
63351;BME280;64988;51.058;17.040;2022-11-18T04:31:13;98818.06;;;1.50;80.18
63351;BME280;64988;51.058;17.040;2022-11-18T04:37:05;98817.00;;;1.53;80.25
63351;BME280;64988;51.058;17.040;2022-11-18T04:42:57;98819.66;;;1.53;80.17
63351;BME280;64988;51.058;17.040;2022-11-18T04:48:49;98821.16;;;1.57;80.16
63351;BME280;64988;51.058;17.040;2022-11-18T04:54:41;98831.56;;;1.47;79.70
63351;BME280;64988;51.058;17.040;2022-11-18T05:00:43;98857.41;;;1.45;79.56
63351;BME280;64988;51.058;17.040;2022-11-18T05:06:36;98837.56;;;1.37;79.58
63351;BME280;64988;51.058;17.040;2022-11-18T05:12:28;98845.53;;;1.37;79.43
63351;BME280;64988;51.058;17.040;2022-11-18T05:18:39;98856.28;;;1.35;79.09
63351;BME280;64988;51.058;17.040;2022-11-18T05:24:32;98870.72;;;1.17;78.71
63351;BME280;64988;51.058;17.040;2022-11-18T05:30:24;98870.72;;;1.31;78.58
63351;BME280;64988;51.058;17.040;2022-11-18T05:36:19;98878.69;;;1.17;77.54
63351;BME280;64988;51.058;17.040;2022-11-18T05:42:11;98890.19;;;1.18;77.29
63351;BME280;64988;51.058;17.040;2022-11-18T05:48:22;98906.78;;;1.07;76.74
63351;BME280;64988;51.058;17.040;2022-11-18T05:54:15;98892.41;;;0.97;76.44
63351;BME280;64988;51.058;17.040;2022-11-18T06:00:10;98902.16;;;0.96;76.18
63351;BME280;64988;51.058;17.040;2022-11-18T06:06:05;98920.06;;;0.79;75.85
63351;BME280;64988;51.058;17.040;2022-11-18T06:11:59;98919.50;;;0.88;76.26
63351;BME280;64988;51.058;17.040;2022-11-18T06:18:07;98927.78;;;0.83;75.79
63351;BME280;64988;51.058;17.040;2022-11-18T06:24:00;98945.59;;;0.67;75.64
63351;BME280;64988;51.058;17.040;2022-11-18T06:29:53;98947.63;;;0.62;75.42
63351;BME280;64988;51.058;17.040;2022-11-18T06:35:45;98959.03;;;0.64;75.00
63351;BME280;64988;51.058;17.040;2022-11-18T06:41:37;98958.75;;;0.69;75.08
63351;BME280;64988;51.058;17.040;2022-11-18T06:47:29;98971.09;;;0.70;74.80
63351;BME280;64988;51.058;17.040;2022-11-18T06:53:22;98964.44;;;0.63;74.54
63351;BME280;64988;51.058;17.040;2022-11-18T06:59:15;98968.81;;;0.78;74.34
63351;BME280;64988;51.058;17.040;2022-11-18T07:05:14;98968.66;;;0.81;74.80
63351;BME280;64988;51.058;17.040;2022-11-18T07:11:10;98995.44;;;0.62;74.48
63351;BME280;64988;51.058;17.040;2022-11-18T07:17:03;99002.75;;;0.73;74.47
63351;BME280;64988;51.058;17.040;2022-11-18T07:22:56;98987.28;;;0.65;74.02
63351;BME280;64988;51.058;17.040;2022-11-18T07:28:48;98981.13;;;0.65;75.33
63351;BME280;64988;51.058;17.040;2022-11-18T07:34:40;98977.22;;;0.56;74.49
63351;BME280;64988;51.058;17.040;2022-11-18T07:40:34;98987.25;;;0.51;74.21
63351;BME280;64988;51.058;17.040;2022-11-18T07:46:28;99002.16;;;0.53;73.31
63351;BME280;64988;51.058;17.040;2022-11-18T07:52:20;98978.94;;;0.57;73.30
63351;BME280;64988;51.058;17.040;2022-11-18T07:58:12;98977.56;;;0.50;72.94
63351;BME280;64988;51.058;17.040;2022-11-18T08:04:08;98963.63;;;0.46;72.48
63351;BME280;64988;51.058;17.040;2022-11-18T08:10:01;98980.53;;;0.60;72.57
63351;BME280;64988;51.058;17.040;2022-11-18T08:15:56;98996.28;;;0.48;71.39
63351;BME280;64988;51.058;17.040;2022-11-18T08:21:49;99001.06;;;0.42;70.81
63351;BME280;64988;51.058;17.040;2022-11-18T08:27:42;98993.13;;;0.56;70.37
63351;BME280;64988;51.058;17.040;2022-11-18T08:33:34;99001.22;;;0.55;69.09
63351;BME280;64988;51.058;17.040;2022-11-18T08:39:27;98995.78;;;0.56;68.61
63351;BME280;64988;51.058;17.040;2022-11-18T08:45:19;99000.91;;;0.59;67.86
63351;BME280;64988;51.058;17.040;2022-11-18T08:51:12;98998.31;;;0.87;66.94
63351;BME280;64988;51.058;17.040;2022-11-18T08:57:04;99019.63;;;1.30;65.75
63351;BME280;64988;51.058;17.040;2022-11-18T09:02:57;99029.00;;;1.07;65.01
63351;BME280;64988;51.058;17.040;2022-11-18T09:08:50;99037.47;;;1.28;65.22
63351;BME280;64988;51.058;17.040;2022-11-18T09:14:43;99038.94;;;1.03;65.64
63351;BME280;64988;51.058;17.040;2022-11-18T09:20:57;99046.13;;;0.87;64.99
63351;BME280;64988;51.058;17.040;2022-11-18T09:26:50;99043.13;;;0.93;64.11
63351;BME280;64988;51.058;17.040;2022-11-18T09:32:46;99053.84;;;0.92;63.98
63351;BME280;64988;51.058;17.040;2022-11-18T09:38:39;99049.56;;;0.89;63.94
63351;BME280;64988;51.058;17.040;2022-11-18T09:44:55;99053.34;;;0.85;63.41
63351;BME280;64988;51.058;17.040;2022-11-18T09:50:48;99052.72;;;0.96;63.63
63351;BME280;64988;51.058;17.040;2022-11-18T09:56:41;99057.53;;;0.89;62.39
63351;BME280;64988;51.058;17.040;2022-11-18T10:21:28;99066.19;;;0.93;61.24
63351;BME280;64988;51.058;17.040;2022-11-18T10:27:33;99056.97;;;0.98;61.29
63351;BME280;64988;51.058;17.040;2022-11-18T10:33:27;99068.03;;;1.07;61.37
63351;BME280;64988;51.058;17.040;2022-11-18T10:39:20;99074.88;;;0.81;61.70
63351;BME280;64988;51.058;17.040;2022-11-18T10:45:29;99066.31;;;1.20;61.56
63351;BME280;64988;51.058;17.040;2022-11-18T10:51:23;99069.53;;;0.96;60.77
63351;BME280;64988;51.058;17.040;2022-11-18T10:57:21;99073.91;;;1.12;60.71
63351;BME280;64988;51.058;17.040;2022-11-18T11:15:10;99090.66;;;0.98;59.86
63351;BME280;64988;51.058;17.040;2022-11-18T11:21:11;99087.94;;;0.99;58.86
63351;BME280;64988;51.058;17.040;2022-11-18T11:40:19;99098.75;;;1.11;60.13
63351;BME280;64988;51.058;17.040;2022-11-18T11:46:48;99086.16;;;1.14;59.89
63351;BME280;64988;51.058;17.040;2022-11-18T12:05:35;99098.75;;;1.11;61.20
63351;BME280;64988;51.058;17.040;2022-11-18T12:11:39;99090.25;;;1.34;61.32
63351;BME280;64988;51.058;17.040;2022-11-18T12:24:30;99092.75;;;1.07;62.77
63351;BME280;64988;51.058;17.040;2022-11-18T12:30:23;99091.19;;;1.19;63.20
63351;BME280;64988;51.058;17.040;2022-11-18T12:36:37;99093.81;;;1.04;63.39
63351;BME280;64988;51.058;17.040;2022-11-18T12:42:39;99106.47;;;1.15;64.62
63351;BME280;64988;51.058;17.040;2022-11-18T12:48:51;99110.25;;;0.81;65.47
63351;BME280;64988;51.058;17.040;2022-11-18T12:54:46;99110.22;;;0.97;66.03
63351;BME280;64988;51.058;17.040;2022-11-18T13:00:39;99109.72;;;0.90;66.04
63351;BME280;64988;51.058;17.040;2022-11-18T13:06:45;99115.53;;;0.51;66.65
63351;BME280;64988;51.058;17.040;2022-11-18T13:12:38;99122.47;;;0.54;66.76
63351;BME280;64988;51.058;17.040;2022-11-18T13:18:31;99136.25;;;0.45;66.97
63351;BME280;64988;51.058;17.040;2022-11-18T13:24:23;99141.72;;;0.26;66.56
63351;BME280;64988;51.058;17.040;2022-11-18T13:30:17;99158.16;;;0.33;66.56
63351;BME280;64988;51.058;17.040;2022-11-18T13:36:17;99170.72;;;0.29;65.70
63351;BME280;64988;51.058;17.040;2022-11-18T13:42:26;99165.53;;;0.28;65.60
63351;BME280;64988;51.058;17.040;2022-11-18T13:48:20;99169.09;;;0.11;64.05
63351;BME280;64988;51.058;17.040;2022-11-18T13:54:19;99183.56;;;0.21;63.64
63351;BME280;64988;51.058;17.040;2022-11-18T14:00:25;99187.31;;;0.02;63.43
63351;BME280;64988;51.058;17.040;2022-11-18T14:06:38;99205.50;;;-0.08;64.45
63351;BME280;64988;51.058;17.040;2022-11-18T14:12:32;99199.69;;;-0.32;63.04
63351;BME280;64988;51.058;17.040;2022-11-18T14:18:44;99194.81;;;-0.39;63.55
63351;BME280;64988;51.058;17.040;2022-11-18T14:37:13;99220.28;;;-0.20;61.28
63351;BME280;64988;51.058;17.040;2022-11-18T14:43:06;99221.22;;;-0.21;61.65
63351;BME280;64988;51.058;17.040;2022-11-18T14:49:04;99217.66;;;-0.54;62.48
63351;BME280;64988;51.058;17.040;2022-11-18T14:54:59;99229.66;;;-0.81;61.75
63351;BME280;64988;51.058;17.040;2022-11-18T15:00:52;99224.00;;;-0.92;63.13
63351;BME280;64988;51.058;17.040;2022-11-18T15:06:44;99235.44;;;-1.09;64.17
63351;BME280;64988;51.058;17.040;2022-11-18T15:12:39;99246.47;;;-1.18;64.34
63351;BME280;64988;51.058;17.040;2022-11-18T15:18:32;99262.38;;;-1.37;66.05
63351;BME280;64988;51.058;17.040;2022-11-18T15:24:26;99254.59;;;-1.58;66.00
63351;BME280;64988;51.058;17.040;2022-11-18T15:30:19;99257.78;;;-1.71;66.94
63351;BME280;64988;51.058;17.040;2022-11-18T15:36:17;99265.56;;;-1.86;67.33
63351;BME280;64988;51.058;17.040;2022-11-18T15:42:13;99261.22;;;-2.07;67.97
63351;BME280;64988;51.058;17.040;2022-11-18T15:48:12;99276.19;;;-2.27;68.99
63351;BME280;64988;51.058;17.040;2022-11-18T15:54:06;99279.16;;;-2.34;69.47
63351;BME280;64988;51.058;17.040;2022-11-18T15:59:59;99281.78;;;-2.34;71.04
63351;BME280;64988;51.058;17.040;2022-11-18T16:06:04;99280.06;;;-2.35;70.63
63351;BME280;64988;51.058;17.040;2022-11-18T16:11:56;99292.50;;;-2.37;70.94
63351;BME280;64988;51.058;17.040;2022-11-18T16:18:09;99309.25;;;-2.58;70.88
63351;BME280;64988;51.058;17.040;2022-11-18T16:24:04;99313.94;;;-2.65;71.70
63351;BME280;64988;51.058;17.040;2022-11-18T16:29:57;99322.56;;;-2.61;72.50
63351;BME280;64988;51.058;17.040;2022-11-18T16:35:50;99315.50;;;-2.39;72.09
63351;BME280;64988;51.058;17.040;2022-11-18T16:41:42;99330.09;;;-2.31;71.03
63351;BME280;64988;51.058;17.040;2022-11-18T16:47:37;99327.34;;;-2.49;71.55
63351;BME280;64988;51.058;17.040;2022-11-18T16:53:30;99340.69;;;-2.74;71.95
63351;BME280;64988;51.058;17.040;2022-11-18T16:59:24;99343.59;;;-2.80;72.35
63351;BME280;64988;51.058;17.040;2022-11-18T17:05:17;99340.44;;;-2.46;72.62
63351;BME280;64988;51.058;17.040;2022-11-18T17:11:10;99340.31;;;-2.03;72.64
63351;BME280;64988;51.058;17.040;2022-11-18T17:17:03;99352.84;;;-1.68;71.66
63351;BME280;64988;51.058;17.040;2022-11-18T17:22:55;99348.84;;;-1.37;71.57
63351;BME280;64988;51.058;17.040;2022-11-18T17:28:48;99349.44;;;-1.12;72.33
63351;BME280;64988;51.058;17.040;2022-11-18T17:34:40;99366.09;;;-0.91;71.90
63351;BME280;64988;51.058;17.040;2022-11-18T17:40:33;99362.44;;;-0.70;70.75
63351;BME280;64988;51.058;17.040;2022-11-18T17:46:27;99360.53;;;-0.49;70.01
63351;BME280;64988;51.058;17.040;2022-11-18T17:52:27;99370.16;;;-0.30;69.62
63351;BME280;64988;51.058;17.040;2022-11-18T17:58:19;99380.00;;;-0.15;68.75
63351;BME280;64988;51.058;17.040;2022-11-18T18:04:11;99383.75;;;-0.02;68.05
63351;BME280;64988;51.058;17.040;2022-11-18T18:10:05;99382.34;;;0.09;67.28
63351;BME280;64988;51.058;17.040;2022-11-18T18:15:59;99389.69;;;0.21;67.36
63351;BME280;64988;51.058;17.040;2022-11-18T18:21:53;99382.25;;;0.27;67.43
63351;BME280;64988;51.058;17.040;2022-11-18T18:27:46;99388.44;;;0.28;66.64
63351;BME280;64988;51.058;17.040;2022-11-18T18:33:39;99386.00;;;0.23;66.71
63351;BME280;64988;51.058;17.040;2022-11-18T18:39:31;99394.97;;;0.21;67.71
63351;BME280;64988;51.058;17.040;2022-11-18T18:45:25;99401.16;;;0.21;67.39
63351;BME280;64988;51.058;17.040;2022-11-18T18:51:40;99402.72;;;0.25;67.39
63351;BME280;64988;51.058;17.040;2022-11-18T18:57:33;99415.84;;;0.28;67.57
63351;BME280;64988;51.058;17.040;2022-11-18T19:03:26;99417.16;;;0.37;67.22
63351;BME280;64988;51.058;17.040;2022-11-18T19:09:20;99412.22;;;0.46;67.64
63351;BME280;64988;51.058;17.040;2022-11-18T19:15:13;99412.59;;;0.56;67.55
63351;BME280;64988;51.058;17.040;2022-11-18T19:21:05;99419.25;;;0.65;67.04
63351;BME280;64988;51.058;17.040;2022-11-18T19:27:02;99426.09;;;0.69;67.04
63351;BME280;64988;51.058;17.040;2022-11-18T19:32:55;99433.19;;;0.68;66.50
63351;BME280;64988;51.058;17.040;2022-11-18T19:38:49;99422.28;;;0.74;66.89
63351;BME280;64988;51.058;17.040;2022-11-18T19:44:41;99429.28;;;0.75;67.13
63351;BME280;64988;51.058;17.040;2022-11-18T19:50:34;99436.47;;;0.73;67.14
63351;BME280;64988;51.058;17.040;2022-11-18T19:56:28;99433.03;;;0.71;67.28
63351;BME280;64988;51.058;17.040;2022-11-18T20:02:20;99444.13;;;0.62;67.59
63351;BME280;64988;51.058;17.040;2022-11-18T20:08:16;99445.25;;;0.58;67.76
63351;BME280;64988;51.058;17.040;2022-11-18T20:14:11;99444.44;;;0.56;68.53
63351;BME280;64988;51.058;17.040;2022-11-18T20:20:06;99453.28;;;0.57;68.64
63351;BME280;64988;51.058;17.040;2022-11-18T20:26:07;99463.28;;;0.51;68.52
63351;BME280;64988;51.058;17.040;2022-11-18T20:32:01;99461.84;;;0.62;68.58
63351;BME280;64988;51.058;17.040;2022-11-18T20:37:54;99473.44;;;0.61;68.25
63351;BME280;64988;51.058;17.040;2022-11-18T20:43:48;99473.66;;;0.56;68.09
63351;BME280;64988;51.058;17.040;2022-11-18T20:49:44;99489.59;;;0.56;68.58
63351;BME280;64988;51.058;17.040;2022-11-18T20:55:37;99483.81;;;0.48;68.56
63351;BME280;64988;51.058;17.040;2022-11-18T21:01:30;99483.88;;;0.46;67.99
63351;BME280;64988;51.058;17.040;2022-11-18T21:07:23;99491.09;;;0.44;67.36
63351;BME280;64988;51.058;17.040;2022-11-18T21:13:15;99495.53;;;0.44;67.13
63351;BME280;64988;51.058;17.040;2022-11-18T21:19:28;99505.78;;;0.51;66.62
63351;BME280;64988;51.058;17.040;2022-11-18T21:25:22;99509.50;;;0.47;66.83
63351;BME280;64988;51.058;17.040;2022-11-18T21:31:15;99510.03;;;0.37;66.81
63351;BME280;64988;51.058;17.040;2022-11-18T21:37:13;99518.41;;;0.46;66.94
63351;BME280;64988;51.058;17.040;2022-11-18T21:43:06;99516.13;;;0.39;66.97
63351;BME280;64988;51.058;17.040;2022-11-18T21:48:59;99507.84;;;0.28;67.55
63351;BME280;64988;51.058;17.040;2022-11-18T21:54:51;99525.75;;;0.06;66.64
63351;BME280;64988;51.058;17.040;2022-11-18T22:00:45;99521.72;;;0.16;65.78
63351;BME280;64988;51.058;17.040;2022-11-18T22:06:38;99533.88;;;0.20;64.91
63351;BME280;64988;51.058;17.040;2022-11-18T22:12:30;99528.31;;;0.07;64.31
63351;BME280;64988;51.058;17.040;2022-11-18T22:18:21;99526.56;;;-0.11;64.87
63351;BME280;64988;51.058;17.040;2022-11-18T22:24:13;99532.91;;;-0.32;64.60
63351;BME280;64988;51.058;17.040;2022-11-18T22:30:06;99537.81;;;-0.43;64.97
63351;BME280;64988;51.058;17.040;2022-11-18T22:36:04;99553.59;;;-0.40;64.96
63351;BME280;64988;51.058;17.040;2022-11-18T22:41:56;99556.03;;;-0.36;64.68
63351;BME280;64988;51.058;17.040;2022-11-18T22:48:08;99554.94;;;-0.32;64.13
63351;BME280;64988;51.058;17.040;2022-11-18T22:54:01;99562.13;;;-0.34;64.21
63351;BME280;64988;51.058;17.040;2022-11-18T23:00:15;99563.47;;;-0.44;64.11
63351;BME280;64988;51.058;17.040;2022-11-18T23:06:07;99560.56;;;-0.58;65.02
63351;BME280;64988;51.058;17.040;2022-11-18T23:11:59;99566.41;;;-0.89;66.04
63351;BME280;64988;51.058;17.040;2022-11-18T23:18:11;99575.28;;;-1.30;67.29
63351;BME280;64988;51.058;17.040;2022-11-18T23:24:04;99583.25;;;-1.52;68.21
63351;BME280;64988;51.058;17.040;2022-11-18T23:29:56;99591.06;;;-1.71;68.56
63351;BME280;64988;51.058;17.040;2022-11-18T23:35:52;99595.19;;;-1.85;69.35
63351;BME280;64988;51.058;17.040;2022-11-18T23:41:43;99590.31;;;-1.96;69.80
63351;BME280;64988;51.058;17.040;2022-11-18T23:47:36;99594.44;;;-2.10;70.84
63351;BME280;64988;51.058;17.040;2022-11-18T23:53:29;99587.03;;;-2.24;71.05
63351;BME280;64988;51.058;17.040;2022-11-18T23:59:22;99593.63;;;-2.36;72.11
